createdAt,value
2022-12-18T00:01:40.782Z,27.57
2022-12-18T00:04:19.914Z,28.97
2022-12-18T00:06:47.297Z,29.33
2022-12-18T00:09:15.914Z,30.80
2022-12-18T00:11:43.321Z,28.37
2022-12-18T00:14:12.432Z,29.13
2022-12-18T00:16:40.260Z,29.70
2022-12-18T00:19:08.358Z,31.00
2022-12-18T00:21:35.640Z,28.97
2022-12-18T00:24:02.930Z,31.67
2022-12-18T00:26:33.321Z,32.37
2022-12-18T00:29:17.107Z,30.57
2022-12-18T00:31:44.999Z,30.03
2022-12-18T00:34:13.690Z,30.60
2022-12-18T00:36:42.091Z,30.87
2022-12-18T00:39:11.668Z,30.43
2022-12-18T00:41:57.338Z,28.37
2022-12-18T00:44:26.314Z,29.17
2022-12-18T00:46:53.465Z,29.33
2022-12-18T00:49:21.498Z,29.10
2022-12-18T00:51:49.338Z,29.83
2022-12-18T00:54:17.168Z,29.90
2022-12-18T00:56:49.349Z,29.23
2022-12-18T00:59:20.213Z,30.30
2022-12-18T01:01:48.548Z,28.87
2022-12-18T01:04:16.290Z,29.70
2022-12-18T01:06:46.721Z,28.63
2022-12-18T01:09:14.188Z,28.20
2022-12-18T01:11:41.421Z,29.73
2022-12-18T01:14:08.671Z,28.27
2022-12-18T01:16:38.381Z,29.10
2022-12-18T01:19:05.573Z,28.83
2022-12-18T01:21:33.377Z,28.93
2022-12-18T01:24:05.415Z,29.13
2022-12-18T01:26:32.741Z,30.30
2022-12-18T01:28:59.993Z,29.27
2022-12-18T01:31:30.427Z,31.83
2022-12-18T01:33:58.655Z,30.87
2022-12-18T01:36:29.026Z,30.77
2022-12-18T01:38:56.998Z,31.27
2022-12-18T01:41:26.816Z,30.57
2022-12-18T01:43:57.869Z,30.50
2022-12-18T01:46:28.657Z,31.63
2022-12-18T01:49:00.814Z,31.33
2022-12-18T01:51:31.746Z,32.03
2022-12-18T01:54:00.241Z,31.57
2022-12-18T01:56:27.655Z,31.87
2022-12-18T01:59:05.594Z,31.73
2022-12-18T02:01:34.038Z,33.20
2022-12-18T02:04:23.996Z,31.23
2022-12-18T02:07:19.982Z,32.77
2022-12-18T02:09:53.528Z,32.83
2022-12-18T02:12:23.807Z,34.07
2022-12-18T02:15:07.437Z,31.77
2022-12-18T02:17:48.497Z,32.40
2022-12-18T02:20:33.851Z,32.20
2022-12-18T02:23:37.588Z,31.57
2022-12-18T02:26:38.968Z,33.40
2022-12-18T02:29:12.839Z,30.60
2022-12-18T02:31:46.055Z,31.77
2022-12-18T02:34:33.734Z,33.20
2022-12-18T02:37:05.357Z,33.73
2022-12-18T02:39:36.632Z,33.23
2022-12-18T02:42:08.855Z,35.53
2022-12-18T02:44:44.450Z,34.30
2022-12-18T02:47:18.846Z,35.00
2022-12-18T02:50:04.089Z,34.40
2022-12-18T02:52:37.793Z,32.70
2022-12-18T02:55:33.663Z,32.33
2022-12-18T02:58:26.945Z,32.67
2022-12-18T03:01:13.100Z,32.53
2022-12-18T03:04:03.801Z,32.90
2022-12-18T03:06:38.134Z,34.17
2022-12-18T03:09:15.745Z,33.40
2022-12-18T03:12:07.436Z,32.77
2022-12-18T03:14:37.981Z,32.70
2022-12-18T03:17:08.613Z,34.30
2022-12-18T03:19:38.495Z,32.90
2022-12-18T03:22:08.397Z,33.10
2022-12-18T03:24:47.186Z,34.20
2022-12-18T03:27:18.302Z,33.73
2022-12-18T03:29:53.821Z,33.20
2022-12-18T03:32:34.587Z,33.47
2022-12-18T03:35:06.412Z,33.90
2022-12-18T03:37:37.359Z,32.33
2022-12-18T03:40:06.625Z,33.00
2022-12-18T03:42:44.447Z,34.23
2022-12-18T03:45:41.101Z,32.73
2022-12-18T03:48:24.927Z,33.10
2022-12-18T03:50:53.330Z,33.63
2022-12-18T03:53:53.643Z,34.97
2022-12-18T03:56:27.798Z,33.07
2022-12-18T03:58:57.615Z,32.27
2022-12-18T04:01:35.112Z,32.70
2022-12-18T04:04:04.597Z,32.73
2022-12-18T04:06:35.558Z,29.97
2022-12-18T04:09:03.215Z,31.03
2022-12-18T04:11:34.411Z,32.20
2022-12-18T04:14:07.317Z,31.60
2022-12-18T04:16:35.296Z,31.83
2022-12-18T04:19:05.304Z,31.43
2022-12-18T04:21:38.904Z,32.70
2022-12-18T04:24:07.142Z,30.53
2022-12-18T04:26:36.636Z,31.90
2022-12-18T04:29:17.113Z,29.50
2022-12-18T04:31:44.641Z,29.70
2022-12-18T04:34:12.369Z,29.40
2022-12-18T04:36:45.376Z,30.13
2022-12-18T04:39:14.521Z,29.80
2022-12-18T04:41:42.304Z,30.33
2022-12-18T04:44:11.442Z,27.83
2022-12-18T04:46:38.687Z,26.13
2022-12-18T04:49:05.904Z,29.13
2022-12-18T04:51:33.350Z,27.33
2022-12-18T04:54:00.944Z,27.80
2022-12-18T04:56:28.362Z,26.20
2022-12-18T04:58:55.503Z,28.50
2022-12-18T05:01:22.899Z,28.40
2022-12-18T05:03:51.639Z,27.67
2022-12-18T05:06:19.276Z,28.37
2022-12-18T05:08:46.530Z,26.23
2022-12-18T05:11:16.744Z,26.93
2022-12-18T05:13:45.370Z,25.83
2022-12-18T05:16:13.426Z,27.33
2022-12-18T05:18:40.897Z,27.67
2022-12-18T05:21:08.154Z,27.37
2022-12-18T05:23:35.794Z,27.60
2022-12-18T05:26:06.113Z,26.70
2022-12-18T05:28:35.750Z,29.20
2022-12-18T05:31:04.753Z,27.90
2022-12-18T05:33:34.283Z,27.13
2022-12-18T05:36:03.435Z,28.00
2022-12-18T05:38:31.765Z,25.83
2022-12-18T05:40:59.487Z,27.53
2022-12-18T05:43:28.113Z,23.70
2022-12-18T05:45:56.667Z,27.73
2022-12-18T05:48:23.905Z,27.10
2022-12-18T05:50:51.932Z,26.63
2022-12-18T05:53:21.606Z,24.77
2022-12-18T05:55:49.157Z,25.80
2022-12-18T05:58:17.029Z,25.87
2022-12-18T06:00:46.842Z,26.50
2022-12-18T06:03:14.961Z,25.93
2022-12-18T06:05:44.923Z,27.10
2022-12-18T06:08:14.015Z,26.50
2022-12-18T06:10:42.183Z,26.50
2022-12-18T06:13:09.856Z,27.77
2022-12-18T06:15:38.514Z,26.67
2022-12-18T06:18:05.913Z,26.27
2022-12-18T06:20:33.783Z,26.07
2022-12-18T06:23:01.444Z,24.00
2022-12-18T06:25:28.814Z,25.13
2022-12-18T06:27:55.991Z,24.50
2022-12-18T06:30:23.301Z,26.37
2022-12-18T06:32:56.300Z,26.67
2022-12-18T06:35:24.345Z,26.33
2022-12-18T06:37:51.766Z,26.30
2022-12-18T06:40:19.644Z,25.33
2022-12-18T06:42:47.127Z,26.07
2022-12-18T06:45:14.483Z,25.80
2022-12-18T06:47:41.683Z,24.53
2022-12-18T06:50:08.878Z,25.07
2022-12-18T06:52:36.050Z,25.07
2022-12-18T06:55:03.482Z,25.87
2022-12-18T06:57:30.651Z,25.53
2022-12-18T06:59:57.810Z,27.40
2022-12-18T07:02:25.292Z,25.30
2022-12-18T07:04:52.732Z,24.97
2022-12-18T07:07:19.890Z,24.83
2022-12-18T07:09:47.043Z,26.57
2022-12-18T07:12:14.208Z,25.50
2022-12-18T07:14:41.350Z,26.90
2022-12-18T07:17:08.778Z,26.23
2022-12-18T07:19:36.020Z,23.43
2022-12-18T07:22:03.273Z,24.73
2022-12-18T07:24:33.123Z,25.43
2022-12-18T07:27:00.467Z,26.17
2022-12-18T07:29:27.622Z,26.20
2022-12-18T07:31:54.850Z,26.47
2022-12-18T07:34:22.117Z,26.17
2022-12-18T07:36:49.306Z,24.77
2022-12-18T07:39:16.561Z,26.50
2022-12-18T07:41:47.532Z,23.90
2022-12-18T07:44:16.921Z,24.67
2022-12-18T07:46:44.085Z,23.93
2022-12-18T07:49:11.216Z,24.33
2022-12-18T07:51:38.390Z,25.73
2022-12-18T07:54:05.654Z,23.70
2022-12-18T07:56:33.030Z,22.97
2022-12-18T07:59:03.769Z,24.77
2022-12-18T08:01:31.099Z,25.70
2022-12-18T08:03:59.536Z,24.13
2022-12-18T08:06:26.811Z,24.80
2022-12-18T08:08:55.265Z,23.53
2022-12-18T08:11:24.175Z,23.93
2022-12-18T08:13:51.567Z,23.67
2022-12-18T08:16:18.993Z,23.73
2022-12-18T08:18:46.923Z,23.40
2022-12-18T08:21:20.426Z,23.77
2022-12-18T08:23:49.657Z,22.10
2022-12-18T08:26:18.483Z,23.47
2022-12-18T08:28:46.545Z,23.43
2022-12-18T08:31:13.961Z,27.57
2022-12-18T08:33:42.615Z,23.60
2022-12-18T08:36:10.987Z,21.90
2022-12-18T08:38:38.299Z,21.40
2022-12-18T08:41:10.828Z,21.80
2022-12-18T08:43:56.706Z,22.97
2022-12-18T08:46:26.973Z,22.43
2022-12-18T08:48:56.098Z,21.43
2022-12-18T08:51:23.564Z,20.67
2022-12-18T08:53:50.782Z,21.53
2022-12-18T08:56:17.997Z,20.97
2022-12-18T08:58:45.341Z,21.77
2022-12-18T09:01:14.596Z,21.97
2022-12-18T09:03:42.259Z,20.73
2022-12-18T09:06:10.088Z,21.30
2022-12-18T09:08:40.517Z,22.10
2022-12-18T09:11:20.410Z,20.63
2022-12-18T09:13:47.708Z,22.10
2022-12-18T09:16:15.218Z,23.00
2022-12-18T09:18:42.809Z,21.97
2022-12-18T09:21:16.314Z,21.60
2022-12-18T09:23:43.769Z,21.60
2022-12-18T09:26:11.546Z,20.97
2022-12-18T09:28:39.481Z,21.47
2022-12-18T09:31:08.713Z,21.57
2022-12-18T09:33:37.427Z,21.73
2022-12-18T09:36:07.774Z,22.23
2022-12-18T09:38:35.749Z,22.53
2022-12-18T09:41:17.998Z,22.07
2022-12-18T09:43:54.733Z,22.47
2022-12-18T09:46:34.864Z,22.90
2022-12-18T09:49:06.867Z,22.17
2022-12-18T09:51:44.310Z,21.40
2022-12-18T09:54:17.523Z,21.00
2022-12-18T09:56:44.937Z,22.07
2022-12-18T09:59:32.973Z,21.87
2022-12-18T10:02:06.330Z,21.37
2022-12-18T10:04:33.957Z,20.60
2022-12-18T10:07:36.336Z,19.20
2022-12-18T10:10:23.819Z,21.20
2022-12-18T10:13:10.679Z,21.07
2022-12-18T10:15:46.933Z,20.90
2022-12-18T10:18:38.833Z,20.63
2022-12-18T10:21:13.173Z,21.27
2022-12-18T10:23:51.907Z,21.90
2022-12-18T10:26:19.091Z,22.33
2022-12-18T10:28:47.096Z,23.77
2022-12-18T10:31:18.882Z,20.63
2022-12-18T10:33:46.518Z,20.37
2022-12-18T10:36:13.730Z,19.90
2022-12-18T10:38:41.692Z,21.07
2022-12-18T10:41:22.979Z,20.60
2022-12-18T10:44:17.110Z,20.77
2022-12-18T10:46:46.597Z,19.03
2022-12-18T10:49:42.727Z,20.97
2022-12-18T10:52:19.697Z,20.90
2022-12-18T10:54:53.945Z,21.10
2022-12-18T10:57:27.216Z,20.40
2022-12-18T10:59:56.870Z,20.13
2022-12-18T11:02:29.888Z,19.73
2022-12-18T11:05:00.823Z,19.67
2022-12-18T11:07:49.995Z,20.30
2022-12-18T11:10:22.318Z,20.40
2022-12-18T11:12:49.997Z,19.57
2022-12-18T11:15:22.658Z,19.50
2022-12-18T11:17:51.891Z,19.20
2022-12-18T11:20:35.191Z,18.63
2022-12-18T11:23:06.512Z,19.50
2022-12-18T11:25:36.456Z,21.40
2022-12-18T11:28:26.669Z,20.37
2022-12-18T11:31:27.034Z,19.23
2022-12-18T11:34:27.340Z,20.33
2022-12-18T11:36:48.823Z,20.03
2022-12-18T11:39:45.931Z,20.57
2022-12-18T11:42:45.190Z,20.53
2022-12-18T11:45:12.591Z,20.03
2022-12-18T11:47:48.056Z,19.87
2022-12-18T11:50:38.150Z,20.23
2022-12-18T11:53:06.453Z,19.83
2022-12-18T11:55:54.856Z,21.13
2022-12-18T11:58:56.937Z,21.70
2022-12-18T12:01:43.347Z,21.67
2022-12-18T12:04:45.444Z,22.23
2022-12-18T12:07:24.650Z,21.20
2022-12-18T12:10:00.627Z,19.70
2022-12-18T12:12:56.399Z,20.17
2022-12-18T12:15:41.856Z,20.43
2022-12-18T12:18:28.573Z,20.40
2022-12-18T12:21:22.587Z,21.43
2022-12-18T12:24:27.454Z,19.73
2022-12-18T12:27:13.273Z,19.57
2022-12-18T12:30:03.613Z,22.33
2022-12-18T12:32:44.670Z,21.27
2022-12-18T12:35:17.989Z,20.93
2022-12-18T12:38:02.575Z,19.13
2022-12-18T12:40:53.815Z,17.80
2022-12-18T12:43:50.669Z,19.27
2022-12-18T12:46:22.396Z,18.87
2022-12-18T12:48:58.518Z,19.73
2022-12-18T12:51:37.889Z,18.63
2022-12-18T12:54:12.502Z,19.10
2022-12-18T12:57:01.394Z,19.30
2022-12-18T12:59:50.649Z,19.50
2022-12-18T13:02:48.590Z,19.80
2022-12-18T13:05:39.511Z,20.13
2022-12-18T13:08:07.861Z,19.97
2022-12-18T13:10:37.984Z,21.83
2022-12-18T13:13:13.361Z,21.33
2022-12-18T13:15:42.243Z,19.27
2022-12-18T13:18:09.573Z,19.27
2022-12-18T13:21:01.519Z,19.10
2022-12-18T13:23:37.228Z,19.93
2022-12-18T13:26:08.909Z,19.60
2022-12-18T13:28:48.389Z,21.27
2022-12-18T13:31:42.283Z,20.07
2022-12-18T13:34:27.580Z,21.90
2022-12-18T13:37:17.549Z,20.97
2022-12-18T13:39:44.931Z,21.27
2022-12-18T13:42:35.878Z,20.53
2022-12-18T13:45:23.140Z,21.60
2022-12-18T13:47:51.155Z,22.50
2022-12-18T13:50:28.566Z,21.37
2022-12-18T13:52:59.735Z,23.73
2022-12-18T13:55:27.586Z,22.73
2022-12-18T13:58:05.684Z,22.87
2022-12-18T14:00:32.878Z,21.90
2022-12-18T14:03:00.957Z,22.30
2022-12-18T14:05:31.105Z,20.90
2022-12-18T14:08:12.033Z,21.40
2022-12-18T14:10:50.106Z,20.87
2022-12-18T14:13:38.752Z,21.33
2022-12-18T14:16:08.569Z,20.80
2022-12-18T14:18:46.456Z,20.07
2022-12-18T14:21:29.139Z,19.90
2022-12-18T14:24:18.990Z,20.43
2022-12-18T14:26:50.347Z,20.53
2022-12-18T14:29:31.635Z,22.67
2022-12-18T14:32:17.682Z,21.80
2022-12-18T14:34:50.582Z,22.07
2022-12-18T14:37:23.320Z,21.43
2022-12-18T14:40:08.689Z,23.07
2022-12-18T14:42:38.094Z,22.50
2022-12-18T14:45:42.138Z,22.40
2022-12-18T14:48:25.458Z,21.43
2022-12-18T14:51:15.650Z,22.17
2022-12-18T14:53:50.709Z,23.13
2022-12-18T14:56:29.950Z,22.87
2022-12-18T14:59:04.317Z,20.83
2022-12-18T15:01:36.322Z,22.10
2022-12-18T15:04:05.861Z,19.67
2022-12-18T15:06:40.760Z,20.40
2022-12-18T15:09:24.383Z,28.00
2022-12-18T15:11:58.150Z,20.90
2022-12-18T15:14:55.011Z,22.37
2022-12-18T15:17:24.573Z,21.23
2022-12-18T15:20:04.096Z,21.07
2022-12-18T15:22:35.484Z,28.17
2022-12-18T15:25:04.953Z,29.27
2022-12-18T15:27:38.530Z,23.57
2022-12-18T15:30:11.265Z,23.27
2022-12-18T15:32:39.178Z,22.90
2022-12-18T15:35:09.356Z,25.40
2022-12-18T15:37:36.590Z,24.03
2022-12-18T15:40:04.669Z,24.10
2022-12-18T15:42:50.312Z,24.33
2022-12-18T15:45:17.730Z,23.60
2022-12-18T15:47:46.261Z,23.30
2022-12-18T15:50:13.558Z,23.40
2022-12-18T15:52:43.757Z,23.87
2022-12-18T15:55:40.834Z,23.17
2022-12-18T15:58:10.905Z,26.33
2022-12-18T16:00:40.513Z,22.57
2022-12-18T16:03:09.236Z,22.87
2022-12-18T16:05:36.607Z,22.90
2022-12-18T16:08:03.925Z,24.20
2022-12-18T16:10:31.447Z,24.80
2022-12-18T16:12:58.641Z,22.77
2022-12-18T16:15:25.789Z,24.17
2022-12-18T16:17:53.103Z,24.30
2022-12-18T16:20:22.810Z,25.07
2022-12-18T16:22:50.396Z,28.67
2022-12-18T16:25:19.338Z,24.50
2022-12-18T16:27:46.512Z,26.10
2022-12-18T16:30:21.452Z,25.03
2022-12-18T16:32:48.770Z,26.13
2022-12-18T16:35:16.988Z,26.50
2022-12-18T16:37:45.061Z,27.20
2022-12-18T16:40:14.962Z,27.10
2022-12-18T16:42:43.891Z,27.17
2022-12-18T16:45:14.891Z,27.40
2022-12-18T16:47:42.428Z,27.90
2022-12-18T16:50:10.365Z,26.43
2022-12-18T16:52:38.272Z,26.23
2022-12-18T16:55:05.995Z,28.93
2022-12-18T16:57:33.724Z,28.57
2022-12-18T17:00:05.291Z,25.43
2022-12-18T17:02:33.981Z,24.97
2022-12-18T17:05:01.458Z,26.10
2022-12-18T17:07:29.136Z,25.30
2022-12-18T17:09:56.355Z,24.63
2022-12-18T17:12:23.807Z,25.37
2022-12-18T17:14:51.174Z,25.93
2022-12-18T17:17:21.352Z,26.60
2022-12-18T17:19:49.362Z,25.93
2022-12-18T17:22:16.540Z,26.07
2022-12-18T17:24:43.753Z,27.20
2022-12-18T17:27:10.942Z,28.40
2022-12-18T17:29:41.266Z,26.70
2022-12-18T17:32:14.024Z,28.43
2022-12-18T17:34:41.340Z,27.83
2022-12-18T17:37:09.240Z,26.43
2022-12-18T17:39:36.514Z,24.37
2022-12-18T17:42:03.906Z,27.03
2022-12-18T17:44:34.203Z,28.20
2022-12-18T17:47:01.799Z,29.07
2022-12-18T17:49:29.472Z,27.50
2022-12-18T17:51:56.670Z,30.27
2022-12-18T17:54:23.933Z,29.57
2022-12-18T17:56:51.155Z,30.37
2022-12-18T17:59:18.477Z,32.20
2022-12-18T18:01:46.574Z,29.30
2022-12-18T18:04:14.380Z,28.57
2022-12-18T18:06:41.927Z,27.27
2022-12-18T18:09:16.164Z,26.73
2022-12-18T18:12:04.112Z,28.70
2022-12-18T18:14:31.519Z,28.30
2022-12-18T18:17:04.294Z,28.53
2022-12-18T18:19:32.920Z,27.80
2022-12-18T18:22:00.381Z,29.53
2022-12-18T18:24:27.654Z,30.10
2022-12-18T18:26:54.898Z,31.70
2022-12-18T18:29:26.562Z,31.60
2022-12-18T18:31:56.868Z,28.77
2022-12-18T18:34:26.773Z,27.30
2022-12-18T18:36:54.194Z,27.60
2022-12-18T18:39:21.478Z,26.00
2022-12-18T18:41:48.996Z,25.10
2022-12-18T18:44:17.624Z,25.13
2022-12-18T18:46:45.145Z,25.90
2022-12-18T18:49:13.927Z,27.83
2022-12-18T18:51:42.375Z,26.27
2022-12-18T18:54:09.892Z,27.60
2022-12-18T18:57:03.766Z,28.43
2022-12-18T18:59:31.198Z,27.90
2022-12-18T19:02:00.383Z,27.13
2022-12-18T19:04:32.456Z,28.97
2022-12-18T19:06:59.779Z,28.50
2022-12-18T19:09:28.755Z,29.17
2022-12-18T19:12:14.745Z,29.50
2022-12-18T19:14:42.391Z,28.40
2022-12-18T19:17:10.937Z,30.10
2022-12-18T19:19:38.725Z,32.33
2022-12-18T19:22:06.227Z,31.80
2022-12-18T19:24:33.541Z,29.87
2022-12-18T19:27:02.038Z,31.30
2022-12-18T19:29:29.261Z,28.60
2022-12-18T19:31:56.470Z,28.23
2022-12-18T19:34:23.682Z,26.87
2022-12-18T19:36:55.269Z,26.57
2022-12-18T19:39:26.868Z,25.70
2022-12-18T19:41:54.503Z,24.50
2022-12-18T19:44:21.668Z,27.07
2022-12-18T19:46:51.583Z,26.87
2022-12-18T19:49:18.826Z,30.43
2022-12-18T19:51:46.509Z,27.37
2022-12-18T19:54:16.987Z,29.07
2022-12-18T19:56:45.299Z,27.17
2022-12-18T19:59:12.827Z,28.07
2022-12-18T20:01:40.917Z,28.83
2022-12-18T20:04:08.441Z,28.97
2022-12-18T20:06:50.405Z,30.77
2022-12-18T20:09:19.116Z,30.70
2022-12-18T20:11:46.469Z,31.13
2022-12-18T20:14:19.680Z,29.47
2022-12-18T20:16:52.121Z,29.93
2022-12-18T20:19:20.515Z,29.93
2022-12-18T20:21:48.417Z,29.57
2022-12-18T20:24:15.605Z,29.77
2022-12-18T20:26:42.921Z,31.53
2022-12-18T20:29:10.087Z,30.27
2022-12-18T20:31:37.280Z,32.73
2022-12-18T20:34:06.087Z,30.07
2022-12-18T20:36:36.267Z,28.70
2022-12-18T20:39:08.970Z,28.83
2022-12-18T20:41:38.972Z,27.70
2022-12-18T20:44:21.471Z,30.73
2022-12-18T20:47:08.676Z,31.17
2022-12-18T20:49:36.071Z,30.30
2022-12-18T20:52:05.946Z,30.57
2022-12-18T20:54:33.157Z,28.63
2022-12-18T20:57:00.316Z,27.07
2022-12-18T20:59:27.586Z,29.27
2022-12-18T21:01:55.457Z,30.73
2022-12-18T21:04:23.486Z,29.73
2022-12-18T21:07:00.455Z,31.80
2022-12-18T21:09:33.702Z,29.37
2022-12-18T21:12:29.548Z,31.53
2022-12-18T21:15:02.497Z,33.20
2022-12-18T21:17:29.861Z,31.07
2022-12-18T21:20:01.396Z,31.47
2022-12-18T21:22:28.618Z,30.63
2022-12-18T21:24:55.884Z,32.87
2022-12-18T21:27:23.079Z,32.53
2022-12-18T21:29:50.595Z,32.63
2022-12-18T21:32:19.859Z,30.90
2022-12-18T21:34:48.475Z,30.93
2022-12-18T21:37:15.860Z,32.57
2022-12-18T21:39:43.045Z,31.27
2022-12-18T21:42:30.574Z,31.40
2022-12-18T21:44:57.822Z,30.30
2022-12-18T21:47:24.988Z,31.27
2022-12-18T21:49:53.033Z,31.57
2022-12-18T21:52:24.537Z,30.40
2022-12-18T21:55:09.167Z,28.40
2022-12-18T21:57:39.057Z,30.20
2022-12-18T22:00:07.624Z,31.17
2022-12-18T22:02:40.729Z,30.03
2022-12-18T22:05:08.554Z,29.70
2022-12-18T22:07:36.092Z,30.23
2022-12-18T22:10:03.343Z,29.73
2022-12-18T22:12:42.930Z,31.47
2022-12-18T22:15:13.146Z,29.10
2022-12-18T22:17:48.471Z,30.33
2022-12-18T22:20:15.975Z,30.63
2022-12-18T22:22:43.362Z,30.00
2022-12-18T22:25:10.921Z,31.20
2022-12-18T22:27:38.074Z,34.73
2022-12-18T22:30:05.921Z,30.07
2022-12-18T22:32:34.997Z,30.23
2022-12-18T22:35:08.285Z,31.07
2022-12-18T22:37:37.762Z,32.20
2022-12-18T22:40:07.532Z,33.17
2022-12-18T22:42:35.762Z,31.33
2022-12-18T22:45:03.001Z,32.43
2022-12-18T22:47:30.830Z,32.43
2022-12-18T22:49:58.459Z,33.30
2022-12-18T22:52:25.874Z,30.57
2022-12-18T22:54:54.258Z,30.43
2022-12-18T22:57:22.777Z,31.07
2022-12-18T22:59:51.100Z,31.47
2022-12-18T23:02:18.933Z,31.27
2022-12-18T23:04:47.475Z,33.27
2022-12-18T23:07:15.030Z,31.00
2022-12-18T23:09:42.195Z,30.17
2022-12-18T23:12:19.537Z,32.47
2022-12-18T23:14:47.222Z,32.30
2022-12-18T23:17:14.493Z,32.23
2022-12-18T23:19:47.110Z,31.27
2022-12-18T23:22:17.072Z,31.50
2022-12-18T23:24:44.455Z,31.80
2022-12-18T23:27:12.274Z,29.43
2022-12-18T23:29:40.478Z,31.10
2022-12-18T23:32:08.037Z,29.53
2022-12-18T23:34:35.254Z,31.30
2022-12-18T23:37:03.564Z,29.37
2022-12-18T23:39:30.918Z,30.47
2022-12-18T23:41:59.312Z,28.37
2022-12-18T23:44:26.609Z,27.90
2022-12-18T23:46:53.897Z,28.27
2022-12-18T23:49:21.196Z,29.10
2022-12-18T23:51:48.905Z,28.97
2022-12-18T23:54:16.228Z,28.13
2022-12-18T23:56:43.403Z,28.43
2022-12-18T23:59:10.591Z,28.23
